sensor_id;sensor_type;location;lat;lon;timestamp;pressure;altitude;pressure_sealevel;temperature;humidity
5609;BME280;2826;51.354;9.588;2023-02-16T00:01:44;99081.75;;;2.93;93.28
5609;BME280;2826;51.354;9.588;2023-02-16T00:04:16;99062.03;;;2.81;93.18
5609;BME280;2826;51.354;9.588;2023-02-16T00:06:43;99094.50;;;2.83;93.85
5609;BME280;2826;51.354;9.588;2023-02-16T00:09:10;99090.25;;;2.85;93.74
5609;BME280;2826;51.354;9.588;2023-02-16T00:11:36;99091.09;;;2.86;93.78
5609;BME280;2826;51.354;9.588;2023-02-16T00:14:22;99088.56;;;2.84;93.28
5609;BME280;2826;51.354;9.588;2023-02-16T00:16:50;99089.41;;;2.88;93.33
5609;BME280;2826;51.354;9.588;2023-02-16T00:19:20;99077.44;;;2.84;93.53
5609;BME280;2826;51.354;9.588;2023-02-16T00:21:48;99075.72;;;2.86;93.17
5609;BME280;2826;51.354;9.588;2023-02-16T00:24:15;99075.69;;;2.78;93.63
5609;BME280;2826;51.354;9.588;2023-02-16T00:26:42;99014.81;;;2.41;93.59
5609;BME280;2826;51.354;9.588;2023-02-16T00:29:14;99069.72;;;2.82;93.61
5609;BME280;2826;51.354;9.588;2023-02-16T00:31:42;99068.00;;;2.80;93.57
5609;BME280;2826;51.354;9.588;2023-02-16T00:34:25;99068.03;;;2.81;93.79
5609;BME280;2826;51.354;9.588;2023-02-16T00:36:52;99068.06;;;2.89;93.75
5609;BME280;2826;51.354;9.588;2023-02-16T00:39:21;99067.22;;;2.90;93.41
5609;BME280;2826;51.354;9.588;2023-02-16T00:41:49;99073.25;;;2.95;93.56
5609;BME280;2826;51.354;9.588;2023-02-16T00:44:19;99043.28;;;2.80;93.45
5609;BME280;2826;51.354;9.588;2023-02-16T00:46:47;99054.38;;;2.88;93.41
5609;BME280;2826;51.354;9.588;2023-02-16T00:49:14;99074.94;;;2.95;93.32
5609;BME280;2826;51.354;9.588;2023-02-16T00:51:42;99066.38;;;2.94;93.28
5609;BME280;2826;51.354;9.588;2023-02-16T00:54:10;99078.34;;;2.94;93.49
5609;BME280;2826;51.354;9.588;2023-02-16T00:56:38;99073.19;;;2.87;93.66
5609;BME280;2826;51.354;9.588;2023-02-16T00:59:08;99073.16;;;2.86;93.46
5609;BME280;2826;51.354;9.588;2023-02-16T01:01:37;99070.59;;;2.86;93.17
5609;BME280;2826;51.354;9.588;2023-02-16T01:04:06;99072.28;;;2.81;93.02
5609;BME280;2826;51.354;9.588;2023-02-16T01:06:32;99064.56;;;2.73;93.30
5609;BME280;2826;51.354;9.588;2023-02-16T01:09:19;99074.84;;;2.76;93.46
5609;BME280;2826;51.354;9.588;2023-02-16T01:12:08;99073.13;;;2.78;93.20
5609;BME280;2826;51.354;9.588;2023-02-16T01:14:36;99073.16;;;2.81;93.44
5609;BME280;2826;51.354;9.588;2023-02-16T01:17:02;99060.31;;;2.78;93.70
5609;BME280;2826;51.354;9.588;2023-02-16T01:19:29;99072.34;;;2.87;93.66
5609;BME280;2826;51.354;9.588;2023-02-16T01:21:55;99071.50;;;2.90;93.27
5609;BME280;2826;51.354;9.588;2023-02-16T01:24:27;99064.63;;;2.85;93.25
5609;BME280;2826;51.354;9.588;2023-02-16T01:26:54;99065.50;;;2.84;93.17
5609;BME280;2826;51.354;9.588;2023-02-16T01:29:21;99065.50;;;2.84;93.09
5609;BME280;2826;51.354;9.588;2023-02-16T01:31:48;99060.31;;;2.77;92.91
5609;BME280;2826;51.354;9.588;2023-02-16T01:34:14;99044.03;;;2.70;93.35
5609;BME280;2826;51.354;9.588;2023-02-16T01:36:44;99053.44;;;2.69;93.62
5609;BME280;2826;51.354;9.588;2023-02-16T01:39:12;99057.72;;;2.72;93.65
5609;BME280;2826;51.354;9.588;2023-02-16T01:41:51;99056.03;;;2.74;93.43
5609;BME280;2826;51.354;9.588;2023-02-16T01:44:22;99007.22;;;2.47;93.27
5609;BME280;2826;51.354;9.588;2023-02-16T01:46:56;99050.94;;;2.82;93.55
5609;BME280;2826;51.354;9.588;2023-02-16T01:49:24;99050.09;;;2.80;93.52
5609;BME280;2826;51.354;9.588;2023-02-16T01:51:55;99038.09;;;2.76;93.48
5609;BME280;2826;51.354;9.588;2023-02-16T01:54:31;99020.13;;;2.68;93.32
5609;BME280;2826;51.354;9.588;2023-02-16T01:57:05;99033.81;;;2.73;93.34
5609;BME280;2826;51.354;9.588;2023-02-16T01:59:40;99036.38;;;2.73;93.71
5609;BME280;2826;51.354;9.588;2023-02-16T02:02:17;99030.44;;;2.77;93.30
5609;BME280;2826;51.354;9.588;2023-02-16T02:04:48;99026.09;;;2.70;93.68
5609;BME280;2826;51.354;9.588;2023-02-16T02:07:43;99036.41;;;2.76;93.37
5609;BME280;2826;51.354;9.588;2023-02-16T02:10:16;99032.13;;;2.73;93.11
5609;BME280;2826;51.354;9.588;2023-02-16T02:12:49;99021.88;;;2.75;93.16
5609;BME280;2826;51.354;9.588;2023-02-16T02:15:21;99027.00;;;2.75;93.39
5609;BME280;2826;51.354;9.588;2023-02-16T02:17:49;99033.00;;;2.77;93.17
5609;BME280;2826;51.354;9.588;2023-02-16T02:20:21;98991.06;;;2.59;93.10
5609;BME280;2826;51.354;9.588;2023-02-16T02:23:19;99014.19;;;2.75;93.02
5609;BME280;2826;51.354;9.588;2023-02-16T02:29:18;99002.19;;;2.66;93.51
5609;BME280;2826;51.354;9.588;2023-02-16T02:31:54;99001.38;;;2.70;93.45
5609;BME280;2826;51.354;9.588;2023-02-16T02:34:40;98974.81;;;2.59;93.19
5609;BME280;2826;51.354;9.588;2023-02-16T02:37:18;98992.81;;;2.71;93.23
5609;BME280;2826;51.354;9.588;2023-02-16T02:39:55;98990.25;;;2.67;93.21
5609;BME280;2826;51.354;9.588;2023-02-16T02:42:31;98982.59;;;2.71;93.44
5609;BME280;2826;51.354;9.588;2023-02-16T02:45:06;98987.75;;;2.76;93.14
5609;BME280;2826;51.354;9.588;2023-02-16T02:47:38;98974.91;;;2.67;93.19
5609;BME280;2826;51.354;9.588;2023-02-16T02:50:31;98989.47;;;2.79;93.04
5609;BME280;2826;51.354;9.588;2023-02-16T02:53:01;98983.44;;;2.75;92.96
5609;BME280;2826;51.354;9.588;2023-02-16T02:55:30;98984.31;;;2.71;93.16
5609;BME280;2826;51.354;9.588;2023-02-16T02:58:19;98991.97;;;2.69;93.34
5609;BME280;2826;51.354;9.588;2023-02-16T03:01:08;98986.00;;;2.69;93.15
5609;BME280;2826;51.354;9.588;2023-02-16T03:03:39;98983.41;;;2.67;93.17
5609;BME280;2826;51.354;9.588;2023-02-16T03:06:12;98990.22;;;2.62;93.43
5609;BME280;2826;51.354;9.588;2023-02-16T03:08:43;98967.06;;;2.48;93.79
5609;BME280;2826;51.354;9.588;2023-02-16T03:11:14;98990.19;;;2.60;93.52
5609;BME280;2826;51.354;9.588;2023-02-16T03:14:03;98981.69;;;2.60;93.74
5609;BME280;2826;51.354;9.588;2023-02-16T03:16:36;98980.84;;;2.63;93.50
5609;BME280;2826;51.354;9.588;2023-02-16T03:19:06;98975.72;;;2.63;93.59
5609;BME280;2826;51.354;9.588;2023-02-16T03:21:51;98986.78;;;2.61;93.41
5609;BME280;2826;51.354;9.588;2023-02-16T03:24:36;98986.78;;;2.61;93.39
5609;BME280;2826;51.354;9.588;2023-02-16T03:27:24;99004.72;;;2.61;93.57
5609;BME280;2826;51.354;9.588;2023-02-16T03:30:10;98987.66;;;2.60;93.86
5609;BME280;2826;51.354;9.588;2023-02-16T03:32:39;98969.63;;;2.43;93.79
5609;BME280;2826;51.354;9.588;2023-02-16T03:35:07;98985.06;;;2.54;93.56
5609;BME280;2826;51.354;9.588;2023-02-16T03:37:34;98993.59;;;2.58;93.76
5609;BME280;2826;51.354;9.588;2023-02-16T03:40:01;98997.88;;;2.57;93.55
5609;BME280;2826;51.354;9.588;2023-02-16T03:42:48;99002.97;;;2.54;93.72
5609;BME280;2826;51.354;9.588;2023-02-16T03:45:15;99002.97;;;2.53;93.51
5609;BME280;2826;51.354;9.588;2023-02-16T03:47:43;99001.25;;;2.55;93.67
5609;BME280;2826;51.354;9.588;2023-02-16T03:50:09;99007.22;;;2.52;93.35
5609;BME280;2826;51.354;9.588;2023-02-16T03:52:36;98996.94;;;2.46;93.54
5609;BME280;2826;51.354;9.588;2023-02-16T03:55:03;98998.66;;;2.47;93.64
5609;BME280;2826;51.354;9.588;2023-02-16T03:57:29;99002.06;;;2.44;94.10
5609;BME280;2826;51.354;9.588;2023-02-16T03:59:56;99000.38;;;2.46;93.72
5609;BME280;2826;51.354;9.588;2023-02-16T04:02:24;99002.06;;;2.44;94.48
5609;BME280;2826;51.354;9.588;2023-02-16T04:04:51;99001.22;;;2.47;93.96
5609;BME280;2826;51.354;9.588;2023-02-16T04:07:18;98989.25;;;2.43;93.80
5609;BME280;2826;51.354;9.588;2023-02-16T04:09:45;98982.44;;;2.43;93.89
5609;BME280;2826;51.354;9.588;2023-02-16T04:12:12;98993.56;;;2.48;93.96
5609;BME280;2826;51.354;9.588;2023-02-16T04:14:56;98990.97;;;2.44;93.95
5609;BME280;2826;51.354;9.588;2023-02-16T04:17:26;98991.81;;;2.46;93.81
5609;BME280;2826;51.354;9.588;2023-02-16T04:19:54;98994.44;;;2.51;93.86
5609;BME280;2826;51.354;9.588;2023-02-16T04:22:21;99003.81;;;2.55;93.61
5609;BME280;2826;51.354;9.588;2023-02-16T04:24:47;98996.97;;;2.47;93.38
5609;BME280;2826;51.354;9.588;2023-02-16T04:27:14;98996.97;;;2.47;93.81
5609;BME280;2826;51.354;9.588;2023-02-16T04:29:40;99000.38;;;2.48;93.64
5609;BME280;2826;51.354;9.588;2023-02-16T04:32:07;98991.84;;;2.49;93.61
5609;BME280;2826;51.354;9.588;2023-02-16T04:34:34;98987.56;;;2.45;93.68
5609;BME280;2826;51.354;9.588;2023-02-16T04:37:02;98987.56;;;2.48;93.63
5609;BME280;2826;51.354;9.588;2023-02-16T04:39:30;98984.16;;;2.46;93.81
5609;BME280;2826;51.354;9.588;2023-02-16T04:41:57;98990.09;;;2.43;93.58
5609;BME280;2826;51.354;9.588;2023-02-16T04:44:23;98987.50;;;2.39;93.76
5609;BME280;2826;51.354;9.588;2023-02-16T04:46:50;98994.34;;;2.37;93.60
5609;BME280;2826;51.354;9.588;2023-02-16T04:49:16;98983.22;;;2.31;93.64
5609;BME280;2826;51.354;9.588;2023-02-16T04:51:43;98992.53;;;2.28;93.64
5609;BME280;2826;51.354;9.588;2023-02-16T04:54:11;98993.34;;;2.17;94.00
5609;BME280;2826;51.354;9.588;2023-02-16T04:56:37;98992.47;;;2.17;94.59
5609;BME280;2826;51.354;9.588;2023-02-16T04:59:04;98985.66;;;2.17;94.59
5609;BME280;2826;51.354;9.588;2023-02-16T05:01:31;98978.84;;;2.18;94.48
5609;BME280;2826;51.354;9.588;2023-02-16T05:03:58;98978.88;;;2.19;94.22
5609;BME280;2826;51.354;9.588;2023-02-16T05:06:24;98975.41;;;2.16;94.60
5609;BME280;2826;51.354;9.588;2023-02-16T05:08:51;98972.84;;;2.17;94.57
5609;BME280;2826;51.354;9.588;2023-02-16T05:11:19;98977.13;;;2.20;94.40
5609;BME280;2826;51.354;9.588;2023-02-16T05:14:03;98977.13;;;2.20;94.41
5609;BME280;2826;51.354;9.588;2023-02-16T05:16:48;98959.22;;;2.18;94.84
5609;BME280;2826;51.354;9.588;2023-02-16T05:19:14;98965.22;;;2.22;94.63
5609;BME280;2826;51.354;9.588;2023-02-16T05:21:40;98967.81;;;2.27;94.63
5609;BME280;2826;51.354;9.588;2023-02-16T05:24:09;98965.25;;;2.28;94.40
5609;BME280;2826;51.354;9.588;2023-02-16T05:26:38;98966.97;;;2.29;94.58
5609;BME280;2826;51.354;9.588;2023-02-16T05:29:05;98977.22;;;2.31;94.46
5609;BME280;2826;51.354;9.588;2023-02-16T05:31:31;98969.53;;;2.31;94.39
5609;BME280;2826;51.354;9.588;2023-02-16T05:33:58;98981.50;;;2.32;94.37
5609;BME280;2826;51.354;9.588;2023-02-16T05:36:25;98972.94;;;2.28;94.24
5609;BME280;2826;51.354;9.588;2023-02-16T05:38:51;98971.22;;;2.27;94.49
5609;BME280;2826;51.354;9.588;2023-02-16T05:41:18;98980.59;;;2.25;94.53
5609;BME280;2826;51.354;9.588;2023-02-16T05:43:51;98971.16;;;2.21;94.50
5609;BME280;2826;51.354;9.588;2023-02-16T05:46:18;98955.81;;;2.21;94.15
5609;BME280;2826;51.354;9.588;2023-02-16T05:48:45;98960.03;;;2.14;94.09
5609;BME280;2826;51.354;9.588;2023-02-16T05:51:11;98956.59;;;2.11;94.25
5609;BME280;2826;51.354;9.588;2023-02-16T05:53:38;98975.38;;;2.09;94.60
5609;BME280;2826;51.354;9.588;2023-02-16T05:56:05;98981.34;;;2.12;94.65
5609;BME280;2826;51.354;9.588;2023-02-16T05:58:32;98990.75;;;2.11;94.81
5609;BME280;2826;51.354;9.588;2023-02-16T06:01:00;98991.59;;;2.15;94.79
5609;BME280;2826;51.354;9.588;2023-02-16T06:03:27;99000.13;;;2.17;94.65
5609;BME280;2826;51.354;9.588;2023-02-16T06:05:55;98997.59;;;2.17;94.37
5609;BME280;2826;51.354;9.588;2023-02-16T06:08:22;99007.84;;;2.18;94.38
5609;BME280;2826;51.354;9.588;2023-02-16T06:10:50;99011.25;;;2.19;93.99
5609;BME280;2826;51.354;9.588;2023-02-16T06:13:17;99007.00;;;2.19;93.80
5609;BME280;2826;51.354;9.588;2023-02-16T06:15:44;99012.06;;;2.13;93.66
5609;BME280;2826;51.354;9.588;2023-02-16T06:18:13;99009.50;;;2.12;93.94
5609;BME280;2826;51.354;9.588;2023-02-16T06:20:41;99007.78;;;2.11;94.12
5609;BME280;2826;51.354;9.588;2023-02-16T06:23:10;99015.44;;;2.09;93.95
5609;BME280;2826;51.354;9.588;2023-02-16T06:25:37;99007.72;;;2.03;94.06
5609;BME280;2826;51.354;9.588;2023-02-16T06:28:06;99023.09;;;2.07;94.01
5609;BME280;2826;51.354;9.588;2023-02-16T06:30:33;99018.81;;;2.05;94.20
5609;BME280;2826;51.354;9.588;2023-02-16T06:33:00;99022.25;;;2.07;94.13
5609;BME280;2826;51.354;9.588;2023-02-16T06:35:29;99026.47;;;2.03;94.15
5609;BME280;2826;51.354;9.588;2023-02-16T06:37:55;99015.31;;;1.96;94.40
5609;BME280;2826;51.354;9.588;2023-02-16T06:40:23;99024.81;;;2.05;94.39
5609;BME280;2826;51.354;9.588;2023-02-16T06:42:50;99018.78;;;2.03;94.11
5609;BME280;2826;51.354;9.588;2023-02-16T06:45:17;99021.38;;;2.06;93.98
5609;BME280;2826;51.354;9.588;2023-02-16T06:47:43;99030.78;;;2.07;94.35
5609;BME280;2826;51.354;9.588;2023-02-16T06:50:10;99028.22;;;2.07;94.17
5609;BME280;2826;51.354;9.588;2023-02-16T06:52:40;99029.94;;;2.08;94.23
5609;BME280;2826;51.354;9.588;2023-02-16T06:55:07;99026.56;;;2.11;94.50
5609;BME280;2826;51.354;9.588;2023-02-16T06:57:34;99022.31;;;2.15;94.75
5609;BME280;2826;51.354;9.588;2023-02-16T07:00:00;99027.44;;;2.16;94.29
5609;BME280;2826;51.354;9.588;2023-02-16T07:02:27;99021.47;;;2.16;94.52
5609;BME280;2826;51.354;9.588;2023-02-16T07:04:54;99024.06;;;2.20;94.51
5609;BME280;2826;51.354;9.588;2023-02-16T07:07:20;99008.75;;;2.22;94.31
5609;BME280;2826;51.354;9.588;2023-02-16T07:09:49;99010.44;;;2.23;94.30
5609;BME280;2826;51.354;9.588;2023-02-16T07:12:16;99008.72;;;2.24;94.67
5609;BME280;2826;51.354;9.588;2023-02-16T07:14:42;99008.78;;;2.30;94.24
5609;BME280;2826;51.354;9.588;2023-02-16T07:17:09;99000.25;;;2.29;94.18
5609;BME280;2826;51.354;9.588;2023-02-16T07:19:36;99012.19;;;2.29;94.01
5609;BME280;2826;51.354;9.588;2023-02-16T07:22:02;99017.31;;;2.27;93.88
5609;BME280;2826;51.354;9.588;2023-02-16T07:24:29;99016.41;;;2.25;93.94
5609;BME280;2826;51.354;9.588;2023-02-16T07:26:57;99008.72;;;2.24;93.85
5609;BME280;2826;51.354;9.588;2023-02-16T07:29:24;99007.06;;;2.27;94.15
5609;BME280;2826;51.354;9.588;2023-02-16T07:31:50;99007.94;;;2.32;93.87
5609;BME280;2826;51.354;9.588;2023-02-16T07:34:17;99013.09;;;2.34;93.80
5609;BME280;2826;51.354;9.588;2023-02-16T07:36:44;99009.66;;;2.33;94.07
5609;BME280;2826;51.354;9.588;2023-02-16T07:39:10;99007.13;;;2.37;93.68
5609;BME280;2826;51.354;9.588;2023-02-16T07:41:37;99010.53;;;2.37;93.66
5609;BME280;2826;51.354;9.588;2023-02-16T07:44:07;99009.72;;;2.40;93.29
5609;BME280;2826;51.354;9.588;2023-02-16T07:46:34;99008.84;;;2.38;93.23
5609;BME280;2826;51.354;9.588;2023-02-16T07:49:01;99012.25;;;2.41;93.50
5609;BME280;2826;51.354;9.588;2023-02-16T07:51:29;99009.66;;;2.33;93.29
5609;BME280;2826;51.354;9.588;2023-02-16T07:53:56;99010.50;;;2.31;93.26
5609;BME280;2826;51.354;9.588;2023-02-16T07:56:25;99021.66;;;2.39;93.13
5609;BME280;2826;51.354;9.588;2023-02-16T07:58:52;99007.94;;;2.32;92.56
5609;BME280;2826;51.354;9.588;2023-02-16T08:01:21;99014.75;;;2.29;93.30
5609;BME280;2826;51.354;9.588;2023-02-16T08:03:48;99030.13;;;2.32;93.28
5609;BME280;2826;51.354;9.588;2023-02-16T08:06:15;99030.09;;;2.30;93.26
5609;BME280;2826;51.354;9.588;2023-02-16T08:08:41;99031.84;;;2.31;93.40
5609;BME280;2826;51.354;9.588;2023-02-16T08:11:09;99036.09;;;2.32;93.60
5609;BME280;2826;51.354;9.588;2023-02-16T08:13:36;99000.09;;;2.11;93.50
5609;BME280;2826;51.354;9.588;2023-02-16T08:16:06;99040.38;;;2.35;93.68
5609;BME280;2826;51.354;9.588;2023-02-16T08:18:34;99045.56;;;2.43;93.90
5609;BME280;2826;51.354;9.588;2023-02-16T08:21:06;99049.00;;;2.43;93.53
5609;BME280;2826;51.354;9.588;2023-02-16T08:23:39;99041.38;;;2.53;93.67
5609;BME280;2826;51.354;9.588;2023-02-16T08:26:08;99031.97;;;2.50;93.50
5609;BME280;2826;51.354;9.588;2023-02-16T08:28:36;99041.41;;;2.56;93.08
5609;BME280;2826;51.354;9.588;2023-02-16T08:31:04;99026.88;;;2.56;92.84
5609;BME280;2826;51.354;9.588;2023-02-16T08:33:31;99030.28;;;2.51;92.55
5609;BME280;2826;51.354;9.588;2023-02-16T08:36:00;99027.63;;;2.43;92.52
5609;BME280;2826;51.354;9.588;2023-02-16T08:38:27;99039.59;;;2.42;92.73
5609;BME280;2826;51.354;9.588;2023-02-16T08:40:56;99031.88;;;2.38;93.20
5609;BME280;2826;51.354;9.588;2023-02-16T08:43:23;99032.75;;;2.40;93.16
5609;BME280;2826;51.354;9.588;2023-02-16T08:45:51;99031.97;;;2.50;93.05
5609;BME280;2826;51.354;9.588;2023-02-16T08:48:18;99032.81;;;2.47;93.26
5609;BME280;2826;51.354;9.588;2023-02-16T08:50:46;99014.81;;;2.37;93.00
5609;BME280;2826;51.354;9.588;2023-02-16T08:53:19;99024.31;;;2.53;93.01
5609;BME280;2826;51.354;9.588;2023-02-16T08:55:52;99020.06;;;2.55;92.62
5609;BME280;2826;51.354;9.588;2023-02-16T08:58:19;99021.75;;;2.56;92.36
5609;BME280;2826;51.354;9.588;2023-02-16T09:00:45;99026.94;;;2.66;92.58
5609;BME280;2826;51.354;9.588;2023-02-16T09:03:12;99013.28;;;2.65;92.29
5609;BME280;2826;51.354;9.588;2023-02-16T09:05:40;99021.88;;;2.72;92.38
5609;BME280;2826;51.354;9.588;2023-02-16T09:08:07;99020.19;;;2.77;92.49
5609;BME280;2826;51.354;9.588;2023-02-16T09:10:35;99025.34;;;2.86;92.26
5609;BME280;2826;51.354;9.588;2023-02-16T09:13:02;99031.28;;;2.81;92.21
5609;BME280;2826;51.354;9.588;2023-02-16T09:15:28;99035.63;;;2.93;92.03
5609;BME280;2826;51.354;9.588;2023-02-16T09:17:55;99027.13;;;3.00;92.00
5609;BME280;2826;51.354;9.588;2023-02-16T09:20:22;99019.47;;;3.02;92.40
5609;BME280;2826;51.354;9.588;2023-02-16T09:22:49;99029.75;;;3.12;91.46
5609;BME280;2826;51.354;9.588;2023-02-16T09:25:16;99031.47;;;3.15;90.97
5609;BME280;2826;51.354;9.588;2023-02-16T09:27:43;99028.88;;;3.10;91.21
5609;BME280;2826;51.354;9.588;2023-02-16T09:30:11;99037.44;;;3.17;90.77
5609;BME280;2826;51.354;9.588;2023-02-16T09:32:38;99028.91;;;3.15;90.89
5609;BME280;2826;51.354;9.588;2023-02-16T09:35:06;99042.56;;;3.12;90.55
5609;BME280;2826;51.354;9.588;2023-02-16T09:37:33;99051.16;;;3.21;89.97
5609;BME280;2826;51.354;9.588;2023-02-16T09:39:59;99039.19;;;3.23;90.04
5609;BME280;2826;51.354;9.588;2023-02-16T09:42:30;99046.03;;;3.24;89.98
5609;BME280;2826;51.354;9.588;2023-02-16T09:45:04;99041.78;;;3.28;90.11
5609;BME280;2826;51.354;9.588;2023-02-16T09:47:36;99041.84;;;3.38;89.66
5609;BME280;2826;51.354;9.588;2023-02-16T09:50:12;99040.16;;;3.45;89.38
5609;BME280;2826;51.354;9.588;2023-02-16T09:52:42;99046.97;;;3.45;89.14
5609;BME280;2826;51.354;9.588;2023-02-16T09:55:12;99042.69;;;3.48;88.85
5609;BME280;2826;51.354;9.588;2023-02-16T09:57:50;99041.03;;;3.53;89.25
5609;BME280;2826;51.354;9.588;2023-02-16T10:00:28;99043.59;;;3.66;88.67
5609;BME280;2826;51.354;9.588;2023-02-16T10:03:11;99046.19;;;3.75;88.20
5609;BME280;2826;51.354;9.588;2023-02-16T10:05:46;99033.38;;;3.75;88.10
5609;BME280;2826;51.354;9.588;2023-02-16T10:08:22;99029.97;;;3.79;87.38
5609;BME280;2826;51.354;9.588;2023-02-16T10:10:57;99039.41;;;3.88;87.01
5609;BME280;2826;51.354;9.588;2023-02-16T10:13:35;99046.22;;;3.86;87.30
5609;BME280;2826;51.354;9.588;2023-02-16T10:16:10;99046.22;;;3.83;86.42
5609;BME280;2826;51.354;9.588;2023-02-16T10:18:42;99044.50;;;3.79;86.33
5609;BME280;2826;51.354;9.588;2023-02-16T10:21:16;99035.94;;;3.78;86.86
5609;BME280;2826;51.354;9.588;2023-02-16T10:23:48;99039.38;;;3.87;87.35
5609;BME280;2826;51.354;9.588;2023-02-16T10:26:21;99023.16;;;3.92;86.60
5609;BME280;2826;51.354;9.588;2023-02-16T10:28:52;99041.97;;;4.09;85.81
5609;BME280;2826;51.354;9.588;2023-02-16T10:31:28;99037.69;;;4.20;85.69
5609;BME280;2826;51.354;9.588;2023-02-16T10:34:16;99035.13;;;4.32;85.37
5609;BME280;2826;51.354;9.588;2023-02-16T10:37:04;99037.72;;;4.34;84.83
5609;BME280;2826;51.354;9.588;2023-02-16T10:39:38;99031.72;;;4.38;84.60
5609;BME280;2826;51.354;9.588;2023-02-16T10:42:15;99030.84;;;4.39;84.30
5609;BME280;2826;51.354;9.588;2023-02-16T10:44:44;99025.72;;;4.49;83.90
5609;BME280;2826;51.354;9.588;2023-02-16T10:47:25;99026.56;;;4.48;83.21
5609;BME280;2826;51.354;9.588;2023-02-16T10:49:53;99022.28;;;4.51;83.72
5609;BME280;2826;51.354;9.588;2023-02-16T10:52:21;99017.97;;;4.74;83.80
5609;BME280;2826;51.354;9.588;2023-02-16T10:54:48;99025.69;;;4.75;82.46
5609;BME280;2826;51.354;9.588;2023-02-16T10:57:22;99021.38;;;4.80;82.55
5609;BME280;2826;51.354;9.588;2023-02-16T10:59:52;99015.31;;;4.99;82.39
5609;BME280;2826;51.354;9.588;2023-02-16T11:02:23;99002.47;;;5.05;81.73
5609;BME280;2826;51.354;9.588;2023-02-16T11:04:52;99020.38;;;5.20;80.66
5609;BME280;2826;51.354;9.588;2023-02-16T11:07:20;99017.75;;;5.38;80.65
5609;BME280;2826;51.354;9.588;2023-02-16T11:09:49;98997.13;;;5.48;80.04
5609;BME280;2826;51.354;9.588;2023-02-16T11:12:27;98973.91;;;5.58;79.91
5609;BME280;2826;51.354;9.588;2023-02-16T11:14:58;98989.16;;;5.86;78.42
5609;BME280;2826;51.354;9.588;2023-02-16T11:17:29;98982.22;;;5.96;77.99
5609;BME280;2826;51.354;9.588;2023-02-16T11:19:58;98982.22;;;5.97;77.63
5609;BME280;2826;51.354;9.588;2023-02-16T11:22:29;98971.81;;;6.14;76.87
5609;BME280;2826;51.354;9.588;2023-02-16T11:25:16;98973.53;;;6.14;76.01
5609;BME280;2826;51.354;9.588;2023-02-16T11:27:49;98967.56;;;6.07;75.85
5609;BME280;2826;51.354;9.588;2023-02-16T11:30:18;98971.88;;;6.07;75.34
5609;BME280;2826;51.354;9.588;2023-02-16T11:32:49;98963.16;;;6.22;75.70
5609;BME280;2826;51.354;9.588;2023-02-16T11:35:16;98963.91;;;6.33;75.58
5609;BME280;2826;51.354;9.588;2023-02-16T11:37:44;98962.19;;;6.35;74.80
5609;BME280;2826;51.354;9.588;2023-02-16T11:40:18;98954.38;;;6.45;75.29
5609;BME280;2826;51.354;9.588;2023-02-16T11:42:47;98962.78;;;6.61;75.04
5609;BME280;2826;51.354;9.588;2023-02-16T11:45:28;98954.00;;;6.77;74.90
5609;BME280;2826;51.354;9.588;2023-02-16T11:48:00;98944.28;;;7.00;73.67
5609;BME280;2826;51.354;9.588;2023-02-16T11:50:29;98958.66;;;7.18;72.72
5609;BME280;2826;51.354;9.588;2023-02-16T11:53:12;98961.31;;;7.15;72.22
5609;BME280;2826;51.354;9.588;2023-02-16T11:55:42;98955.88;;;7.35;71.97
5609;BME280;2826;51.354;9.588;2023-02-16T11:58:15;98956.69;;;7.39;71.53
5609;BME280;2826;51.354;9.588;2023-02-16T12:00:48;98956.81;;;7.29;70.69
5609;BME280;2826;51.354;9.588;2023-02-16T12:03:33;98950.84;;;7.24;71.77
5609;BME280;2826;51.354;9.588;2023-02-16T12:06:21;98948.56;;;7.02;70.94
5609;BME280;2826;51.354;9.588;2023-02-16T12:09:02;98940.78;;;7.07;71.61
5609;BME280;2826;51.354;9.588;2023-02-16T12:11:37;98936.03;;;7.39;72.15
5609;BME280;2826;51.354;9.588;2023-02-16T12:14:16;98939.84;;;7.72;71.27
5609;BME280;2826;51.354;9.588;2023-02-16T12:16:49;98942.78;;;8.06;70.69
5609;BME280;2826;51.354;9.588;2023-02-16T12:19:32;98921.94;;;8.15;68.71
5609;BME280;2826;51.354;9.588;2023-02-16T12:22:08;98934.19;;;8.54;68.44
5609;BME280;2826;51.354;9.588;2023-02-16T12:24:46;98929.69;;;8.64;67.74
5609;BME280;2826;51.354;9.588;2023-02-16T12:27:21;98929.50;;;8.75;66.56
5609;BME280;2826;51.354;9.588;2023-02-16T12:29:56;98918.09;;;8.84;65.97
5609;BME280;2826;51.354;9.588;2023-02-16T12:32:43;98925.97;;;8.78;66.63
5609;BME280;2826;51.354;9.588;2023-02-16T12:35:32;98927.44;;;8.91;66.16
5609;BME280;2826;51.354;9.588;2023-02-16T12:38:12;98927.72;;;8.77;65.69
5609;BME280;2826;51.354;9.588;2023-02-16T12:40:49;98914.25;;;8.59;65.34
5609;BME280;2826;51.354;9.588;2023-02-16T12:43:29;98906.13;;;8.32;66.40
5609;BME280;2826;51.354;9.588;2023-02-16T12:46:03;98910.63;;;8.21;66.83
5609;BME280;2826;51.354;9.588;2023-02-16T12:48:39;98893.88;;;7.95;67.08
5609;BME280;2826;51.354;9.588;2023-02-16T12:51:13;98921.16;;;8.10;67.79
5609;BME280;2826;51.354;9.588;2023-02-16T12:53:45;98906.03;;;7.90;67.42
5609;BME280;2826;51.354;9.588;2023-02-16T12:56:16;98900.84;;;7.90;68.21
5609;BME280;2826;51.354;9.588;2023-02-16T12:58:46;98909.38;;;7.93;68.67
5609;BME280;2826;51.354;9.588;2023-02-16T13:01:21;98914.44;;;8.00;68.27
5609;BME280;2826;51.354;9.588;2023-02-16T13:03:52;98903.31;;;7.96;68.36
5609;BME280;2826;51.354;9.588;2023-02-16T13:06:26;98907.56;;;8.00;68.54
5609;BME280;2826;51.354;9.588;2023-02-16T13:09:01;98904.09;;;8.01;68.21
5609;BME280;2826;51.354;9.588;2023-02-16T13:11:34;98904.19;;;7.96;68.55
5609;BME280;2826;51.354;9.588;2023-02-16T13:14:08;98906.81;;;7.93;69.02
5609;BME280;2826;51.354;9.588;2023-02-16T13:16:41;98899.19;;;7.86;68.86
5609;BME280;2826;51.354;9.588;2023-02-16T13:19:11;98907.09;;;7.76;69.63
5609;BME280;2826;51.354;9.588;2023-02-16T13:21:58;98900.22;;;7.74;70.09
5609;BME280;2826;51.354;9.588;2023-02-16T13:24:40;98884.69;;;7.78;70.71
5609;BME280;2826;51.354;9.588;2023-02-16T13:27:16;98887.09;;;7.89;70.94
5609;BME280;2826;51.354;9.588;2023-02-16T13:29:56;98881.13;;;7.86;70.86
5609;BME280;2826;51.354;9.588;2023-02-16T13:32:41;98878.56;;;7.84;70.89
5609;BME280;2826;51.354;9.588;2023-02-16T13:35:27;98872.41;;;7.91;70.83
5609;BME280;2826;51.354;9.588;2023-02-16T13:38:08;98866.28;;;7.97;71.01
5609;BME280;2826;51.354;9.588;2023-02-16T13:41:03;98861.84;;;8.04;70.93
5609;BME280;2826;51.354;9.588;2023-02-16T13:43:35;98856.50;;;8.13;70.63
5609;BME280;2826;51.354;9.588;2023-02-16T13:46:04;98857.34;;;8.17;70.63
5609;BME280;2826;51.354;9.588;2023-02-16T13:48:36;98865.94;;;8.16;70.47
5609;BME280;2826;51.354;9.588;2023-02-16T13:51:08;98853.88;;;8.16;70.49
5609;BME280;2826;51.354;9.588;2023-02-16T13:53:41;98863.34;;;8.17;70.25
5609;BME280;2826;51.354;9.588;2023-02-16T13:56:19;98866.94;;;8.08;70.78
5609;BME280;2826;51.354;9.588;2023-02-16T13:58:48;98866.44;;;7.88;70.59